Аэропорт: Алыкель. Норильск

ICAO: UOOO

METAR:
2021-01-20 03:30:00
UOOO 200330Z 10001MPS 6000 NSC M36/M40 Q1016 R01/39//45 NOSIG RMK QFE747/0997
METAR:
2021-01-20 01:46:00
TAF UOOO 200146Z 2003/2103 VRB01MPS 6000 SCT025 TEMPO 2003/2103 3500 HZ SCT016 BECMG 2006/2008 18003G08MPS